sensor_id;sensor_type;location;lat;lon;timestamp;P1;durP1;ratioP1;P2;durP2;ratioP2
3571;SDS011;7958;53.024;12.970;2022-08-30T00:00:12;3.03;;;2.83;;
3571;SDS011;7958;53.024;12.970;2022-08-30T00:03:13;3.40;;;3.10;;
3571;SDS011;7958;53.024;12.970;2022-08-30T00:05:40;3.30;;;3.00;;
3571;SDS011;7958;53.024;12.970;2022-08-30T00:08:08;3.20;;;3.00;;
3571;SDS011;7958;53.024;12.970;2022-08-30T00:10:36;3.07;;;2.77;;
3571;SDS011;7958;53.024;12.970;2022-08-30T00:13:03;4.20;;;3.20;;
3571;SDS011;7958;53.024;12.970;2022-08-30T00:15:30;3.20;;;2.90;;
3571;SDS011;7958;53.024;12.970;2022-08-30T00:17:57;3.60;;;3.30;;
3571;SDS011;7958;53.024;12.970;2022-08-30T00:20:24;2.97;;;2.77;;
3571;SDS011;7958;53.024;12.970;2022-08-30T00:22:52;3.50;;;3.20;;
3571;SDS011;7958;53.024;12.970;2022-08-30T00:25:18;2.93;;;2.73;;
3571;SDS011;7958;53.024;12.970;2022-08-30T00:27:46;6.60;;;2.80;;
3571;SDS011;7958;53.024;12.970;2022-08-30T00:30:14;2.90;;;2.70;;
3571;SDS011;7958;53.024;12.970;2022-08-30T00:32:41;3.30;;;3.10;;
3571;SDS011;7958;53.024;12.970;2022-08-30T00:35:08;3.10;;;2.90;;
3571;SDS011;7958;53.024;12.970;2022-08-30T00:37:35;3.60;;;3.30;;
3571;SDS011;7958;53.024;12.970;2022-08-30T00:40:02;3.63;;;3.33;;
3571;SDS011;7958;53.024;12.970;2022-08-30T00:42:30;3.50;;;3.20;;
3571;SDS011;7958;53.024;12.970;2022-08-30T00:44:59;3.80;;;3.50;;
3571;SDS011;7958;53.024;12.970;2022-08-30T00:47:25;3.57;;;3.20;;
3571;SDS011;7958;53.024;12.970;2022-08-30T00:49:52;4.47;;;3.20;;
3571;SDS011;7958;53.024;12.970;2022-08-30T00:52:20;3.93;;;3.00;;
3571;SDS011;7958;53.024;12.970;2022-08-30T00:54:47;4.00;;;3.60;;
3571;SDS011;7958;53.024;12.970;2022-08-30T00:57:14;3.00;;;2.80;;
3571;SDS011;7958;53.024;12.970;2022-08-30T00:59:41;3.53;;;2.97;;
3571;SDS011;7958;53.024;12.970;2022-08-30T01:02:09;3.53;;;3.23;;
3571;SDS011;7958;53.024;12.970;2022-08-30T01:04:36;3.60;;;3.30;;
3571;SDS011;7958;53.024;12.970;2022-08-30T01:07:04;3.30;;;3.00;;
3571;SDS011;7958;53.024;12.970;2022-08-30T01:09:32;3.87;;;3.07;;
3571;SDS011;7958;53.024;12.970;2022-08-30T01:11:58;3.60;;;3.00;;
3571;SDS011;7958;53.024;12.970;2022-08-30T01:14:25;3.80;;;3.50;;
3571;SDS011;7958;53.024;12.970;2022-08-30T01:16:51;3.10;;;2.90;;
3571;SDS011;7958;53.024;12.970;2022-08-30T01:19:23;3.73;;;3.43;;
3571;SDS011;7958;53.024;12.970;2022-08-30T01:21:56;3.83;;;3.53;;
3571;SDS011;7958;53.024;12.970;2022-08-30T01:24:27;3.47;;;3.17;;
3571;SDS011;7958;53.024;12.970;2022-08-30T01:26:54;4.80;;;3.00;;
3571;SDS011;7958;53.024;12.970;2022-08-30T01:29:21;3.90;;;3.60;;
3571;SDS011;7958;53.024;12.970;2022-08-30T01:31:48;3.40;;;3.20;;
3571;SDS011;7958;53.024;12.970;2022-08-30T01:34:15;3.40;;;3.10;;
3571;SDS011;7958;53.024;12.970;2022-08-30T01:36:42;3.30;;;3.03;;
3571;SDS011;7958;53.024;12.970;2022-08-30T01:39:10;3.23;;;3.03;;
3571;SDS011;7958;53.024;12.970;2022-08-30T01:41:39;4.10;;;3.60;;
3571;SDS011;7958;53.024;12.970;2022-08-30T01:44:06;3.90;;;3.27;;
3571;SDS011;7958;53.024;12.970;2022-08-30T01:46:35;8.23;;;3.07;;
3571;SDS011;7958;53.024;12.970;2022-08-30T01:49:05;5.77;;;3.17;;
3571;SDS011;7958;53.024;12.970;2022-08-30T01:51:33;3.37;;;2.90;;
3571;SDS011;7958;53.024;12.970;2022-08-30T01:53:59;3.97;;;2.97;;
3571;SDS011;7958;53.024;12.970;2022-08-30T01:56:26;6.13;;;3.50;;
3571;SDS011;7958;53.024;12.970;2022-08-30T01:58:54;3.80;;;3.40;;
3571;SDS011;7958;53.024;12.970;2022-08-30T02:01:22;3.83;;;3.20;;
3571;SDS011;7958;53.024;12.970;2022-08-30T02:03:50;4.03;;;3.63;;
3571;SDS011;7958;53.024;12.970;2022-08-30T02:06:20;3.33;;;3.03;;
3571;SDS011;7958;53.024;12.970;2022-08-30T02:08:47;5.80;;;3.40;;
3571;SDS011;7958;53.024;12.970;2022-08-30T02:11:14;3.07;;;2.87;;
3571;SDS011;7958;53.024;12.970;2022-08-30T02:13:41;8.13;;;3.10;;
3571;SDS011;7958;53.024;12.970;2022-08-30T02:16:11;3.90;;;3.60;;
3571;SDS011;7958;53.024;12.970;2022-08-30T02:18:40;2.80;;;2.60;;
3571;SDS011;7958;53.024;12.970;2022-08-30T02:21:06;3.17;;;2.97;;
3571;SDS011;7958;53.024;12.970;2022-08-30T02:23:33;3.13;;;2.93;;
3571;SDS011;7958;53.024;12.970;2022-08-30T02:26:00;3.30;;;3.10;;
3571;SDS011;7958;53.024;12.970;2022-08-30T02:28:27;3.47;;;2.63;;
3571;SDS011;7958;53.024;12.970;2022-08-30T02:30:53;3.03;;;2.73;;
3571;SDS011;7958;53.024;12.970;2022-08-30T02:33:21;2.87;;;2.70;;
3571;SDS011;7958;53.024;12.970;2022-08-30T02:35:48;2.50;;;2.30;;
3571;SDS011;7958;53.024;12.970;2022-08-30T02:38:14;3.03;;;2.83;;
3571;SDS011;7958;53.024;12.970;2022-08-30T02:40:41;3.00;;;2.80;;
3571;SDS011;7958;53.024;12.970;2022-08-30T02:43:08;3.13;;;2.60;;
3571;SDS011;7958;53.024;12.970;2022-08-30T02:45:34;3.10;;;2.90;;
3571;SDS011;7958;53.024;12.970;2022-08-30T02:48:01;3.27;;;3.00;;
3571;SDS011;7958;53.024;12.970;2022-08-30T02:50:29;4.40;;;2.53;;
3571;SDS011;7958;53.024;12.970;2022-08-30T02:52:56;5.60;;;2.87;;
3571;SDS011;7958;53.024;12.970;2022-08-30T02:55:22;3.17;;;2.97;;
3571;SDS011;7958;53.024;12.970;2022-08-30T02:57:49;3.40;;;3.10;;
3571;SDS011;7958;53.024;12.970;2022-08-30T03:00:16;2.93;;;2.70;;
3571;SDS011;7958;53.024;12.970;2022-08-30T03:02:44;3.70;;;3.40;;
3571;SDS011;7958;53.024;12.970;2022-08-30T03:05:11;2.60;;;2.40;;
3571;SDS011;7958;53.024;12.970;2022-08-30T03:07:39;3.53;;;2.80;;
3571;SDS011;7958;53.024;12.970;2022-08-30T03:10:06;3.73;;;2.80;;
3571;SDS011;7958;53.024;12.970;2022-08-30T03:12:33;2.70;;;2.50;;
3571;SDS011;7958;53.024;12.970;2022-08-30T03:15:00;3.13;;;2.93;;
3571;SDS011;7958;53.024;12.970;2022-08-30T03:17:26;2.97;;;2.73;;
3571;SDS011;7958;53.024;12.970;2022-08-30T03:19:55;3.07;;;2.87;;
3571;SDS011;7958;53.024;12.970;2022-08-30T03:22:22;4.47;;;3.47;;
3571;SDS011;7958;53.024;12.970;2022-08-30T03:24:50;3.63;;;3.10;;
3571;SDS011;7958;53.024;12.970;2022-08-30T03:27:16;4.43;;;2.80;;
3571;SDS011;7958;53.024;12.970;2022-08-30T03:29:43;2.90;;;2.70;;
3571;SDS011;7958;53.024;12.970;2022-08-30T03:32:09;4.00;;;3.20;;
3571;SDS011;7958;53.024;12.970;2022-08-30T03:34:36;5.00;;;3.00;;
3571;SDS011;7958;53.024;12.970;2022-08-30T03:37:02;4.00;;;2.50;;
3571;SDS011;7958;53.024;12.970;2022-08-30T03:39:28;3.93;;;2.80;;
3571;SDS011;7958;53.024;12.970;2022-08-30T03:41:57;3.20;;;2.90;;
3571;SDS011;7958;53.024;12.970;2022-08-30T03:44:23;4.87;;;2.47;;
3571;SDS011;7958;53.024;12.970;2022-08-30T03:46:50;3.03;;;2.73;;
3571;SDS011;7958;53.024;12.970;2022-08-30T03:49:16;3.10;;;2.80;;
3571;SDS011;7958;53.024;12.970;2022-08-30T03:51:43;2.77;;;2.57;;
3571;SDS011;7958;53.024;12.970;2022-08-30T03:54:09;2.50;;;2.30;;
3571;SDS011;7958;53.024;12.970;2022-08-30T03:56:36;2.10;;;2.00;;
3571;SDS011;7958;53.024;12.970;2022-08-30T03:59:03;2.27;;;2.17;;
3571;SDS011;7958;53.024;12.970;2022-08-30T04:01:30;3.67;;;2.20;;
3571;SDS011;7958;53.024;12.970;2022-08-30T04:03:56;4.47;;;2.23;;
3571;SDS011;7958;53.024;12.970;2022-08-30T04:06:23;1.90;;;1.80;;
3571;SDS011;7958;53.024;12.970;2022-08-30T04:08:50;3.10;;;2.43;;
3571;SDS011;7958;53.024;12.970;2022-08-30T04:11:16;2.50;;;2.30;;
3571;SDS011;7958;53.024;12.970;2022-08-30T04:13:42;2.27;;;2.17;;
3571;SDS011;7958;53.024;12.970;2022-08-30T04:16:10;1.90;;;1.80;;
3571;SDS011;7958;53.024;12.970;2022-08-30T04:18:37;1.67;;;1.57;;
3571;SDS011;7958;53.024;12.970;2022-08-30T04:21:03;1.90;;;1.60;;
3571;SDS011;7958;53.024;12.970;2022-08-30T04:23:30;1.70;;;1.60;;
3571;SDS011;7958;53.024;12.970;2022-08-30T04:25:56;1.50;;;1.50;;
3571;SDS011;7958;53.024;12.970;2022-08-30T04:28:23;1.90;;;1.80;;
3571;SDS011;7958;53.024;12.970;2022-08-30T04:30:50;4.97;;;1.30;;
3571;SDS011;7958;53.024;12.970;2022-08-30T04:33:18;6.63;;;1.60;;
3571;SDS011;7958;53.024;12.970;2022-08-30T04:35:45;2.73;;;1.43;;
3571;SDS011;7958;53.024;12.970;2022-08-30T04:38:13;1.60;;;1.50;;
3571;SDS011;7958;53.024;12.970;2022-08-30T04:40:39;1.53;;;1.33;;
3571;SDS011;7958;53.024;12.970;2022-08-30T04:43:07;2.33;;;1.40;;
3571;SDS011;7958;53.024;12.970;2022-08-30T04:45:33;2.10;;;1.40;;
3571;SDS011;7958;53.024;12.970;2022-08-30T04:48:00;2.50;;;1.53;;
3571;SDS011;7958;53.024;12.970;2022-08-30T04:50:28;1.50;;;1.27;;
3571;SDS011;7958;53.024;12.970;2022-08-30T04:52:54;2.17;;;1.23;;
3571;SDS011;7958;53.024;12.970;2022-08-30T04:55:20;1.40;;;1.30;;
3571;SDS011;7958;53.024;12.970;2022-08-30T04:57:48;1.50;;;1.40;;
3571;SDS011;7958;53.024;12.970;2022-08-30T05:00:15;2.20;;;1.40;;
3571;SDS011;7958;53.024;12.970;2022-08-30T05:02:44;2.00;;;1.40;;
3571;SDS011;7958;53.024;12.970;2022-08-30T05:05:11;3.43;;;1.40;;
3571;SDS011;7958;53.024;12.970;2022-08-30T05:07:57;2.03;;;1.50;;
3571;SDS011;7958;53.024;12.970;2022-08-30T05:10:23;1.70;;;1.40;;
3571;SDS011;7958;53.024;12.970;2022-08-30T05:12:51;1.60;;;1.50;;
3571;SDS011;7958;53.024;12.970;2022-08-30T05:15:18;1.97;;;1.87;;
3571;SDS011;7958;53.024;12.970;2022-08-30T05:17:45;2.03;;;1.93;;
3571;SDS011;7958;53.024;12.970;2022-08-30T05:20:12;2.83;;;2.00;;
3571;SDS011;7958;53.024;12.970;2022-08-30T05:22:39;1.67;;;1.57;;
3571;SDS011;7958;53.024;12.970;2022-08-30T05:25:15;1.87;;;1.70;;
3571;SDS011;7958;53.024;12.970;2022-08-30T05:27:42;2.03;;;1.87;;
3571;SDS011;7958;53.024;12.970;2022-08-30T05:30:09;2.47;;;1.70;;
3571;SDS011;7958;53.024;12.970;2022-08-30T05:32:36;2.70;;;2.10;;
3571;SDS011;7958;53.024;12.970;2022-08-30T05:35:03;2.40;;;1.73;;
3571;SDS011;7958;53.024;12.970;2022-08-30T05:37:30;1.80;;;1.70;;
3571;SDS011;7958;53.024;12.970;2022-08-30T05:39:56;1.60;;;1.50;;
3571;SDS011;7958;53.024;12.970;2022-08-30T05:42:24;1.50;;;1.40;;
3571;SDS011;7958;53.024;12.970;2022-08-30T05:44:51;1.60;;;1.50;;
3571;SDS011;7958;53.024;12.970;2022-08-30T05:47:18;1.20;;;1.20;;
3571;SDS011;7958;53.024;12.970;2022-08-30T05:49:44;1.53;;;1.27;;
3571;SDS011;7958;53.024;12.970;2022-08-30T05:52:11;1.60;;;1.50;;
3571;SDS011;7958;53.024;12.970;2022-08-30T05:54:39;1.83;;;1.10;;
3571;SDS011;7958;53.024;12.970;2022-08-30T05:57:05;1.20;;;1.10;;
3571;SDS011;7958;53.024;12.970;2022-08-30T05:59:33;1.43;;;1.30;;
3571;SDS011;7958;53.024;12.970;2022-08-30T06:02:00;1.10;;;1.10;;
3571;SDS011;7958;53.024;12.970;2022-08-30T06:04:26;1.20;;;1.20;;
3571;SDS011;7958;53.024;12.970;2022-08-30T06:06:52;1.17;;;1.10;;
3571;SDS011;7958;53.024;12.970;2022-08-30T06:09:19;1.10;;;1.10;;
3571;SDS011;7958;53.024;12.970;2022-08-30T06:11:45;1.47;;;1.37;;
3571;SDS011;7958;53.024;12.970;2022-08-30T06:14:12;1.00;;;1.00;;
3571;SDS011;7958;53.024;12.970;2022-08-30T06:16:40;1.17;;;1.17;;
3571;SDS011;7958;53.024;12.970;2022-08-30T06:19:09;1.87;;;1.10;;
3571;SDS011;7958;53.024;12.970;2022-08-30T06:21:37;1.50;;;0.93;;
3571;SDS011;7958;53.024;12.970;2022-08-30T06:24:05;2.10;;;1.03;;
3571;SDS011;7958;53.024;12.970;2022-08-30T06:26:35;2.63;;;1.20;;
3571;SDS011;7958;53.024;12.970;2022-08-30T06:29:02;4.83;;;1.37;;
3571;SDS011;7958;53.024;12.970;2022-08-30T06:31:28;4.53;;;1.33;;
3571;SDS011;7958;53.024;12.970;2022-08-30T06:33:56;1.20;;;1.20;;
3571;SDS011;7958;53.024;12.970;2022-08-30T06:36:23;1.73;;;1.60;;
3571;SDS011;7958;53.024;12.970;2022-08-30T06:38:51;1.10;;;1.10;;
3571;SDS011;7958;53.024;12.970;2022-08-30T06:41:18;1.20;;;1.20;;
3571;SDS011;7958;53.024;12.970;2022-08-30T06:43:46;2.10;;;1.40;;
3571;SDS011;7958;53.024;12.970;2022-08-30T06:46:13;1.40;;;1.40;;
3571;SDS011;7958;53.024;12.970;2022-08-30T06:48:42;1.10;;;1.10;;
3571;SDS011;7958;53.024;12.970;2022-08-30T06:51:10;1.50;;;1.40;;
3571;SDS011;7958;53.024;12.970;2022-08-30T06:53:36;1.20;;;1.10;;
3571;SDS011;7958;53.024;12.970;2022-08-30T06:56:03;2.83;;;1.37;;
3571;SDS011;7958;53.024;12.970;2022-08-30T06:58:32;1.70;;;1.50;;
3571;SDS011;7958;53.024;12.970;2022-08-30T07:00:59;1.57;;;1.20;;
3571;SDS011;7958;53.024;12.970;2022-08-30T07:03:25;1.40;;;1.40;;
3571;SDS011;7958;53.024;12.970;2022-08-30T07:05:52;1.47;;;1.47;;
3571;SDS011;7958;53.024;12.970;2022-08-30T07:08:20;1.60;;;1.50;;
3571;SDS011;7958;53.024;12.970;2022-08-30T07:10:47;2.17;;;1.50;;
3571;SDS011;7958;53.024;12.970;2022-08-30T07:13:14;7.50;;;2.53;;
3571;SDS011;7958;53.024;12.970;2022-08-30T07:15:41;3.33;;;1.47;;
3571;SDS011;7958;53.024;12.970;2022-08-30T07:18:08;2.40;;;1.77;;
3571;SDS011;7958;53.024;12.970;2022-08-30T07:20:52;2.80;;;1.40;;
3571;SDS011;7958;53.024;12.970;2022-08-30T07:23:20;2.67;;;1.43;;
3571;SDS011;7958;53.024;12.970;2022-08-30T07:25:47;2.17;;;1.50;;
3571;SDS011;7958;53.024;12.970;2022-08-30T07:28:14;1.73;;;1.30;;
3571;SDS011;7958;53.024;12.970;2022-08-30T07:30:41;2.40;;;1.80;;
3571;SDS011;7958;53.024;12.970;2022-08-30T07:33:07;1.60;;;1.50;;
3571;SDS011;7958;53.024;12.970;2022-08-30T07:35:34;3.50;;;1.60;;
3571;SDS011;7958;53.024;12.970;2022-08-30T07:38:01;1.40;;;1.30;;
3571;SDS011;7958;53.024;12.970;2022-08-30T07:40:29;3.20;;;1.43;;
3571;SDS011;7958;53.024;12.970;2022-08-30T07:42:55;2.13;;;1.57;;
3571;SDS011;7958;53.024;12.970;2022-08-30T07:45:25;1.43;;;1.33;;
3571;SDS011;7958;53.024;12.970;2022-08-30T07:47:52;1.37;;;1.37;;
3571;SDS011;7958;53.024;12.970;2022-08-30T07:50:18;1.10;;;1.10;;
3571;SDS011;7958;53.024;12.970;2022-08-30T07:52:46;1.63;;;1.53;;
3571;SDS011;7958;53.024;12.970;2022-08-30T07:55:12;1.40;;;1.40;;
3571;SDS011;7958;53.024;12.970;2022-08-30T07:57:40;1.60;;;1.50;;
3571;SDS011;7958;53.024;12.970;2022-08-30T08:00:07;1.40;;;1.30;;
3571;SDS011;7958;53.024;12.970;2022-08-30T08:02:34;1.43;;;1.33;;
3571;SDS011;7958;53.024;12.970;2022-08-30T08:05:01;1.93;;;1.50;;
3571;SDS011;7958;53.024;12.970;2022-08-30T08:07:29;3.70;;;1.40;;
3571;SDS011;7958;53.024;12.970;2022-08-30T08:09:55;1.10;;;1.10;;
3571;SDS011;7958;53.024;12.970;2022-08-30T08:12:22;1.40;;;1.30;;
3571;SDS011;7958;53.024;12.970;2022-08-30T08:14:50;1.47;;;1.40;;
3571;SDS011;7958;53.024;12.970;2022-08-30T08:17:16;1.20;;;1.10;;
3571;SDS011;7958;53.024;12.970;2022-08-30T08:19:42;1.00;;;1.00;;
3571;SDS011;7958;53.024;12.970;2022-08-30T08:22:09;1.20;;;1.20;;
3571;SDS011;7958;53.024;12.970;2022-08-30T08:24:35;1.40;;;1.20;;
3571;SDS011;7958;53.024;12.970;2022-08-30T08:27:02;2.13;;;1.93;;
3571;SDS011;7958;53.024;12.970;2022-08-30T08:29:28;2.03;;;1.40;;
3571;SDS011;7958;53.024;12.970;2022-08-30T08:31:56;1.30;;;1.30;;
3571;SDS011;7958;53.024;12.970;2022-08-30T08:34:24;1.53;;;1.43;;
3571;SDS011;7958;53.024;12.970;2022-08-30T08:36:51;2.60;;;1.57;;
3571;SDS011;7958;53.024;12.970;2022-08-30T08:39:18;1.50;;;1.40;;
3571;SDS011;7958;53.024;12.970;2022-08-30T08:41:49;7.57;;;1.67;;
3571;SDS011;7958;53.024;12.970;2022-08-30T08:44:23;1.60;;;1.50;;
3571;SDS011;7958;53.024;12.970;2022-08-30T08:46:58;1.60;;;1.50;;
3571;SDS011;7958;53.024;12.970;2022-08-30T08:49:28;1.40;;;1.30;;
3571;SDS011;7958;53.024;12.970;2022-08-30T08:51:54;1.70;;;1.60;;
3571;SDS011;7958;53.024;12.970;2022-08-30T08:54:40;1.50;;;1.50;;
3571;SDS011;7958;53.024;12.970;2022-08-30T08:57:09;2.57;;;1.53;;
3571;SDS011;7958;53.024;12.970;2022-08-30T08:59:36;1.70;;;1.60;;
3571;SDS011;7958;53.024;12.970;2022-08-30T09:02:07;2.53;;;1.73;;
3571;SDS011;7958;53.024;12.970;2022-08-30T09:04:44;2.00;;;1.80;;
3571;SDS011;7958;53.024;12.970;2022-08-30T09:07:12;1.70;;;1.60;;
3571;SDS011;7958;53.024;12.970;2022-08-30T09:09:42;2.07;;;1.77;;
3571;SDS011;7958;53.024;12.970;2022-08-30T09:12:09;2.50;;;2.30;;
3571;SDS011;7958;53.024;12.970;2022-08-30T09:14:38;2.10;;;1.90;;
3571;SDS011;7958;53.024;12.970;2022-08-30T09:17:08;1.57;;;1.47;;
3571;SDS011;7958;53.024;12.970;2022-08-30T09:19:38;1.77;;;1.67;;
3571;SDS011;7958;53.024;12.970;2022-08-30T09:22:14;2.70;;;2.47;;
3571;SDS011;7958;53.024;12.970;2022-08-30T09:24:47;1.83;;;1.73;;
3571;SDS011;7958;53.024;12.970;2022-08-30T09:27:17;2.03;;;1.93;;
3571;SDS011;7958;53.024;12.970;2022-08-30T09:29:52;1.80;;;1.70;;
3571;SDS011;7958;53.024;12.970;2022-08-30T09:32:26;1.80;;;1.70;;
3571;SDS011;7958;53.024;12.970;2022-08-30T09:34:55;1.90;;;1.70;;
3571;SDS011;7958;53.024;12.970;2022-08-30T09:40:11;2.13;;;1.90;;
3571;SDS011;7958;53.024;12.970;2022-08-30T09:42:40;2.27;;;2.10;;
3571;SDS011;7958;53.024;12.970;2022-08-30T09:45:17;1.80;;;1.60;;
3571;SDS011;7958;53.024;12.970;2022-08-30T09:47:46;2.30;;;1.57;;
3571;SDS011;7958;53.024;12.970;2022-08-30T09:50:14;1.97;;;1.50;;
3571;SDS011;7958;53.024;12.970;2022-08-30T09:52:55;3.00;;;2.10;;
3571;SDS011;7958;53.024;12.970;2022-08-30T09:58:22;3.37;;;1.60;;
3571;SDS011;7958;53.024;12.970;2022-08-30T10:00:55;2.20;;;1.87;;
3571;SDS011;7958;53.024;12.970;2022-08-30T10:03:29;1.77;;;1.67;;
3571;SDS011;7958;53.024;12.970;2022-08-30T10:06:01;2.10;;;2.00;;
3571;SDS011;7958;53.024;12.970;2022-08-30T10:08:38;2.13;;;2.03;;
3571;SDS011;7958;53.024;12.970;2022-08-30T10:11:11;2.27;;;2.07;;
3571;SDS011;7958;53.024;12.970;2022-08-30T10:13:50;2.77;;;2.00;;
3571;SDS011;7958;53.024;12.970;2022-08-30T10:16:26;1.90;;;1.80;;
3571;SDS011;7958;53.024;12.970;2022-08-30T10:19:02;1.80;;;1.70;;
3571;SDS011;7958;53.024;12.970;2022-08-30T10:21:34;2.20;;;2.00;;
3571;SDS011;7958;53.024;12.970;2022-08-30T10:24:04;2.20;;;2.00;;
3571;SDS011;7958;53.024;12.970;2022-08-30T10:26:35;3.47;;;2.50;;
3571;SDS011;7958;53.024;12.970;2022-08-30T10:29:05;2.60;;;2.20;;
3571;SDS011;7958;53.024;12.970;2022-08-30T10:31:35;2.27;;;2.17;;
3571;SDS011;7958;53.024;12.970;2022-08-30T10:34:07;2.77;;;2.10;;
3571;SDS011;7958;53.024;12.970;2022-08-30T10:36:38;3.60;;;2.87;;
3571;SDS011;7958;53.024;12.970;2022-08-30T10:39:07;2.30;;;2.10;;
3571;SDS011;7958;53.024;12.970;2022-08-30T10:41:40;3.30;;;2.20;;
3571;SDS011;7958;53.024;12.970;2022-08-30T10:44:10;5.10;;;1.70;;
3571;SDS011;7958;53.024;12.970;2022-08-30T10:46:46;3.30;;;1.83;;
3571;SDS011;7958;53.024;12.970;2022-08-30T10:49:20;2.20;;;1.90;;
3571;SDS011;7958;53.024;12.970;2022-08-30T10:51:49;2.00;;;1.90;;
3571;SDS011;7958;53.024;12.970;2022-08-30T10:54:19;2.87;;;2.67;;
3571;SDS011;7958;53.024;12.970;2022-08-30T10:56:49;3.03;;;1.97;;
3571;SDS011;7958;53.024;12.970;2022-08-30T10:59:16;2.43;;;2.23;;
3571;SDS011;7958;53.024;12.970;2022-08-30T11:01:56;2.03;;;1.93;;
3571;SDS011;7958;53.024;12.970;2022-08-30T11:04:50;2.50;;;1.87;;
3571;SDS011;7958;53.024;12.970;2022-08-30T11:07:37;4.73;;;2.33;;
3571;SDS011;7958;53.024;12.970;2022-08-30T11:10:30;2.60;;;1.63;;
3571;SDS011;7958;53.024;12.970;2022-08-30T11:13:01;2.57;;;2.20;;
3571;SDS011;7958;53.024;12.970;2022-08-30T11:15:31;1.90;;;1.80;;
3571;SDS011;7958;53.024;12.970;2022-08-30T11:18:01;1.73;;;1.63;;
3571;SDS011;7958;53.024;12.970;2022-08-30T11:20:33;1.67;;;1.57;;
3571;SDS011;7958;53.024;12.970;2022-08-30T11:23:18;3.00;;;2.17;;
3571;SDS011;7958;53.024;12.970;2022-08-30T11:25:48;1.63;;;1.50;;
3571;SDS011;7958;53.024;12.970;2022-08-30T11:31:27;1.23;;;1.13;;
3571;SDS011;7958;53.024;12.970;2022-08-30T11:33:57;2.80;;;1.40;;
3571;SDS011;7958;53.024;12.970;2022-08-30T11:39:50;1.53;;;1.47;;
3571;SDS011;7958;53.024;12.970;2022-08-30T11:42:26;2.70;;;1.40;;
3571;SDS011;7958;53.024;12.970;2022-08-30T11:51:09;1.70;;;1.60;;
3571;SDS011;7958;53.024;12.970;2022-08-30T11:53:48;1.60;;;1.50;;
3571;SDS011;7958;53.024;12.970;2022-08-30T11:56:20;1.77;;;1.37;;
3571;SDS011;7958;53.024;12.970;2022-08-30T11:58:50;2.73;;;1.43;;
3571;SDS011;7958;53.024;12.970;2022-08-30T12:01:30;2.37;;;1.93;;
3571;SDS011;7958;53.024;12.970;2022-08-30T12:04:00;3.73;;;2.07;;
3571;SDS011;7958;53.024;12.970;2022-08-30T12:06:46;1.47;;;1.47;;
3571;SDS011;7958;53.024;12.970;2022-08-30T12:12:49;2.10;;;1.90;;
3571;SDS011;7958;53.024;12.970;2022-08-30T12:15:27;2.00;;;1.90;;
3571;SDS011;7958;53.024;12.970;2022-08-30T12:18:09;3.63;;;2.23;;
3571;SDS011;7958;53.024;12.970;2022-08-30T12:20:55;3.63;;;2.20;;
3571;SDS011;7958;53.024;12.970;2022-08-30T12:23:30;2.43;;;2.30;;
3571;SDS011;7958;53.024;12.970;2022-08-30T12:26:11;3.43;;;2.10;;
3571;SDS011;7958;53.024;12.970;2022-08-30T12:28:41;2.53;;;2.30;;
3571;SDS011;7958;53.024;12.970;2022-08-30T12:31:10;2.70;;;1.87;;
3571;SDS011;7958;53.024;12.970;2022-08-30T12:33:39;2.53;;;1.90;;
3571;SDS011;7958;53.024;12.970;2022-08-30T12:36:14;2.10;;;1.90;;
3571;SDS011;7958;53.024;12.970;2022-08-30T12:38:41;2.23;;;2.13;;
3571;SDS011;7958;53.024;12.970;2022-08-30T12:41:12;3.60;;;2.40;;
3571;SDS011;7958;53.024;12.970;2022-08-30T12:43:48;2.50;;;2.30;;
3571;SDS011;7958;53.024;12.970;2022-08-30T12:46:16;7.00;;;1.90;;
3571;SDS011;7958;53.024;12.970;2022-08-30T12:48:43;2.00;;;1.57;;
3571;SDS011;7958;53.024;12.970;2022-08-30T12:51:24;2.93;;;1.90;;
3571;SDS011;7958;53.024;12.970;2022-08-30T12:53:52;3.97;;;1.90;;
3571;SDS011;7958;53.024;12.970;2022-08-30T12:56:19;3.03;;;1.80;;
3571;SDS011;7958;53.024;12.970;2022-08-30T12:58:48;1.90;;;1.50;;
3571;SDS011;7958;53.024;12.970;2022-08-30T13:01:17;2.30;;;1.90;;
3571;SDS011;7958;53.024;12.970;2022-08-30T13:03:56;1.70;;;1.60;;
3571;SDS011;7958;53.024;12.970;2022-08-30T13:06:37;3.00;;;2.07;;
3571;SDS011;7958;53.024;12.970;2022-08-30T13:09:06;2.90;;;2.03;;
3571;SDS011;7958;53.024;12.970;2022-08-30T13:11:32;2.83;;;1.97;;
3571;SDS011;7958;53.024;12.970;2022-08-30T13:16:46;2.50;;;2.00;;
3571;SDS011;7958;53.024;12.970;2022-08-30T13:19:18;2.30;;;2.10;;
3571;SDS011;7958;53.024;12.970;2022-08-30T13:21:52;3.00;;;2.50;;
3571;SDS011;7958;53.024;12.970;2022-08-30T13:24:19;2.30;;;2.10;;
3571;SDS011;7958;53.024;12.970;2022-08-30T13:26:47;2.50;;;1.83;;
3571;SDS011;7958;53.024;12.970;2022-08-30T13:29:14;2.83;;;2.33;;
3571;SDS011;7958;53.024;12.970;2022-08-30T13:31:43;2.20;;;1.60;;
3571;SDS011;7958;53.024;12.970;2022-08-30T13:34:09;2.43;;;2.23;;
3571;SDS011;7958;53.024;12.970;2022-08-30T13:36:36;2.80;;;2.23;;
3571;SDS011;7958;53.024;12.970;2022-08-30T13:39:06;3.90;;;2.20;;
3571;SDS011;7958;53.024;12.970;2022-08-30T13:41:32;2.13;;;2.00;;
3571;SDS011;7958;53.024;12.970;2022-08-30T13:43:59;2.47;;;2.00;;
3571;SDS011;7958;53.024;12.970;2022-08-30T13:46:25;1.50;;;1.50;;
3571;SDS011;7958;53.024;12.970;2022-08-30T13:48:56;3.00;;;2.10;;
3571;SDS011;7958;53.024;12.970;2022-08-30T13:51:25;2.10;;;1.90;;
3571;SDS011;7958;53.024;12.970;2022-08-30T13:53:51;1.73;;;1.63;;
3571;SDS011;7958;53.024;12.970;2022-08-30T13:56:17;2.07;;;1.50;;
3571;SDS011;7958;53.024;12.970;2022-08-30T13:58:44;3.37;;;1.60;;
3571;SDS011;7958;53.024;12.970;2022-08-30T14:01:10;2.63;;;1.60;;
3571;SDS011;7958;53.024;12.970;2022-08-30T14:03:36;1.70;;;1.60;;
3571;SDS011;7958;53.024;12.970;2022-08-30T14:06:04;1.33;;;1.23;;
3571;SDS011;7958;53.024;12.970;2022-08-30T14:08:31;3.30;;;1.80;;
3571;SDS011;7958;53.024;12.970;2022-08-30T14:10:59;2.53;;;1.90;;
3571;SDS011;7958;53.024;12.970;2022-08-30T14:13:25;1.60;;;1.47;;
3571;SDS011;7958;53.024;12.970;2022-08-30T14:15:53;2.10;;;1.40;;
3571;SDS011;7958;53.024;12.970;2022-08-30T14:18:19;1.97;;;1.40;;
3571;SDS011;7958;53.024;12.970;2022-08-30T14:20:45;1.90;;;1.67;;
3571;SDS011;7958;53.024;12.970;2022-08-30T14:23:13;1.60;;;1.50;;
3571;SDS011;7958;53.024;12.970;2022-08-30T14:25:40;2.03;;;1.57;;
3571;SDS011;7958;53.024;12.970;2022-08-30T14:28:06;1.60;;;1.50;;
3571;SDS011;7958;53.024;12.970;2022-08-30T14:30:33;1.53;;;1.43;;
3571;SDS011;7958;53.024;12.970;2022-08-30T14:32:59;1.47;;;1.37;;
3571;SDS011;7958;53.024;12.970;2022-08-30T14:35:25;1.30;;;1.20;;
3571;SDS011;7958;53.024;12.970;2022-08-30T14:37:52;1.30;;;1.20;;
3571;SDS011;7958;53.024;12.970;2022-08-30T14:40:20;1.30;;;1.20;;
3571;SDS011;7958;53.024;12.970;2022-08-30T14:42:47;5.43;;;1.30;;
3571;SDS011;7958;53.024;12.970;2022-08-30T14:45:13;2.20;;;1.10;;
3571;SDS011;7958;53.024;12.970;2022-08-30T14:47:40;1.60;;;1.50;;
3571;SDS011;7958;53.024;12.970;2022-08-30T14:50:07;2.30;;;1.10;;
3571;SDS011;7958;53.024;12.970;2022-08-30T14:52:34;1.60;;;1.50;;
3571;SDS011;7958;53.024;12.970;2022-08-30T14:55:00;1.20;;;1.10;;
3571;SDS011;7958;53.024;12.970;2022-08-30T14:57:30;1.00;;;1.00;;
3571;SDS011;7958;53.024;12.970;2022-08-30T14:59:56;1.27;;;1.17;;
3571;SDS011;7958;53.024;12.970;2022-08-30T15:02:23;1.23;;;1.13;;
3571;SDS011;7958;53.024;12.970;2022-08-30T15:04:49;1.27;;;1.17;;
3571;SDS011;7958;53.024;12.970;2022-08-30T15:07:15;1.87;;;1.60;;
3571;SDS011;7958;53.024;12.970;2022-08-30T15:09:42;8.47;;;1.13;;
3571;SDS011;7958;53.024;12.970;2022-08-30T15:12:08;1.10;;;1.00;;
3571;SDS011;7958;53.024;12.970;2022-08-30T15:14:36;1.20;;;1.10;;
3571;SDS011;7958;53.024;12.970;2022-08-30T15:17:03;1.30;;;1.20;;
3571;SDS011;7958;53.024;12.970;2022-08-30T15:19:29;1.47;;;0.80;;
3571;SDS011;7958;53.024;12.970;2022-08-30T15:21:57;1.10;;;1.10;;
3571;SDS011;7958;53.024;12.970;2022-08-30T15:24:24;1.07;;;1.03;;
3571;SDS011;7958;53.024;12.970;2022-08-30T15:26:50;1.37;;;1.20;;
3571;SDS011;7958;53.024;12.970;2022-08-30T15:29:17;1.07;;;1.00;;
3571;SDS011;7958;53.024;12.970;2022-08-30T15:31:46;1.20;;;1.10;;
3571;SDS011;7958;53.024;12.970;2022-08-30T15:34:14;1.20;;;1.10;;